Time;durP1;ratioP1;P1;durP2;ratioP2;P2;SDS_P1;SDS_P2;PMS_P1;PMS_P2;Temp;Humidity;BMP_temperature;BMP_pressure;BME280_temperature;BME280_humidity;BME280_pressure;Samples;Min_cycle;Max_cycle;Signal;HPM_P1;HPM_P2
2023/09/25 00:01:49;;;;;;;9.07;8.88;;;;;;;-141.02;100.00;38227.84;5113434;28;20205;-58
2023/09/25 00:04:16;;;;;;;9.50;9.20;;;;;;;-141.02;100.00;38231.69;5113535;28;20197;-59
2023/09/25 00:06:45;;;;;;;9.52;9.23;;;;;;;-141.02;100.00;38201.03;5113305;28;20222;-58
2023/09/25 00:09:12;;;;;;;9.77;9.48;;;;;;;-141.02;100.00;38258.53;5113677;28;20199;-59
2023/09/25 00:11:39;;;;;;;9.90;9.60;;;;;;;-141.02;100.00;38262.38;5113221;28;20228;-58
2023/09/25 00:14:06;;;;;;;9.68;9.38;;;;;;;-141.02;100.00;38258.53;5113208;28;20702;-58
2023/09/25 00:16:33;;;;;;;10.15;9.85;;;;;;;-141.02;100.00;38243.19;5113509;28;20197;-59
2023/09/25 00:19:00;;;;;;;10.68;10.38;;;;;;;-141.02;100.00;38248.94;5113501;28;20197;-60
2023/09/25 00:21:28;;;;;;;10.25;9.95;;;;;;;-141.02;100.00;38281.53;5113405;28;20193;-61
2023/09/25 00:23:56;;;;;;;9.80;9.50;;;;;;;-141.02;100.00;38285.38;5113357;28;20205;-71
2023/09/25 00:26:23;;;;;;;10.10;9.80;;;;;;;-141.02;100.00;38293.03;5113346;28;20549;-74
2023/09/25 00:28:50;;;;;;;10.10;9.80;;;;;;;-141.02;100.00;38293.03;5112961;28;20189;-70
2023/09/25 00:31:17;;;;;;;10.70;10.40;;;;;;;-141.02;100.00;38358.22;5112453;28;20587;-58
2023/09/25 00:33:45;;;;;;;10.80;10.50;;;;;;;-141.02;100.00;38431.09;5113052;28;20307;-65
2023/09/25 00:36:12;;;;;;;11.07;10.77;;;;;;;-141.02;100.00;38423.41;5113134;28;20222;-68
2023/09/25 00:38:39;;;;;;;11.13;10.82;;;;;;;-141.02;100.00;38461.75;5113132;28;20203;-58
2023/09/25 00:41:08;;;;;;;11.52;11.23;;;;;;;-141.02;100.00;38494.34;5113056;28;20193;-59
2023/09/25 00:43:34;;;;;;;12.20;11.80;;;;;;;-141.02;100.00;38538.44;5112713;28;20288;-59
2023/09/25 00:46:02;;;;;;;12.35;11.95;;;;;;;-141.02;100.00;38576.78;5112731;28;20195;-58
2023/09/25 00:48:30;;;;;;;12.32;11.93;;;;;;;-141.02;100.00;38569.13;5112680;28;20189;-58
2023/09/25 00:50:59;;;;;;;12.23;11.82;;;;;;;-141.02;100.00;38599.81;5112633;28;20207;-58
2023/09/25 00:53:27;;;;;;;12.35;11.95;;;;;;;-141.02;100.00;38601.72;5112484;28;20231;-73
2023/09/25 00:55:55;;;;;;;12.52;12.13;;;;;;;-141.02;100.00;38630.47;5112556;28;20224;-58
2023/09/25 00:58:24;;;;;;;12.45;12.05;;;;;;;-141.02;100.00;38651.56;5112851;28;20275;-59
2023/09/25 01:00:52;;;;;;;12.50;12.10;;;;;;;-141.02;100.00;38676.50;5112448;28;20681;-59
2023/09/25 01:03:19;;;;;;;12.80;12.40;;;;;;;-141.02;100.00;38689.91;5112789;28;20201;-59
2023/09/25 01:05:47;;;;;;;13.07;12.68;;;;;;;-141.02;100.00;38699.50;5112706;28;20200;-59
2023/09/25 01:08:14;;;;;;;13.27;12.88;;;;;;;-141.02;100.00;38695.66;5112454;28;20193;-58
2023/09/25 01:10:41;;;;;;;13.60;13.20;;;;;;;-141.02;100.00;38695.66;5112156;28;20312;-58
2023/09/25 01:13:09;;;;;;;13.32;12.93;;;;;;;-141.02;100.00;38726.34;5112661;28;20242;-59
2023/09/25 01:15:38;;;;;;;13.20;12.80;;;;;;;-141.02;100.00;38749.34;5112527;28;20250;-58
2023/09/25 01:18:06;;;;;;;13.60;13.20;;;;;;;-141.02;100.00;38753.19;5112364;28;20188;-58
2023/09/25 01:20:33;;;;;;;13.60;13.20;;;;;;;-141.02;100.00;38764.69;5112359;28;20378;-58
2023/09/25 01:23:02;;;;;;;13.40;13.00;;;;;;;-141.02;100.00;38780.03;5112242;28;20197;-59
2023/09/25 01:25:29;;;;;;;13.50;13.10;;;;;;;-141.02;100.00;38806.88;5112608;28;20197;-58
2023/09/25 01:27:55;;;;;;;13.70;13.30;;;;;;;-141.02;100.00;38780.03;5112501;28;20199;-58
2023/09/25 01:30:23;;;;;;;13.50;13.10;;;;;;;-141.02;100.00;38806.88;5112209;28;20193;-58
2023/09/25 01:32:51;;;;;;;13.38;12.98;;;;;;;-141.02;100.00;38810.72;5112189;28;20200;-58
2023/09/25 01:35:20;;;;;;;13.13;12.73;;;;;;;-141.02;100.00;38814.56;5112093;28;20224;-59
2023/09/25 01:37:48;;;;;;;13.02;12.63;;;;;;;-141.02;100.00;38818.38;5117429;28;20189;-72
2023/09/25 01:40:17;;;;;;;13.02;12.63;;;;;;;-141.02;100.00;38804.97;5132995;27;20197;-58
2023/09/25 01:42:45;;;;;;;13.02;12.63;;;;;;;-141.02;100.00;38806.88;5134887;27;20188;-59
2023/09/25 01:45:16;;;;;;;12.77;12.38;;;;;;;-141.02;100.00;38864.41;5137015;27;20189;-58
2023/09/25 01:47:48;;;;;;;13.32;12.93;;;;;;;-141.02;100.00;38841.41;5136747;27;20630;-59
2023/09/25 01:50:16;;;;;;;13.10;12.70;;;;;;;-141.02;100.00;38860.56;5136636;27;20189;-58
2023/09/25 01:52:43;;;;;;;12.45;12.05;;;;;;;-141.02;100.00;38849.06;5136936;27;20196;-72
2023/09/25 01:55:10;;;;;;;12.50;12.10;;;;;;;-141.02;100.00;38845.22;5136732;27;20226;-58
2023/09/25 01:57:39;;;;;;;12.38;11.98;;;;;;;-141.02;100.00;38849.06;5136786;27;20196;-58
2023/09/25 02:00:09;;;;;;;12.60;12.20;;;;;;;-141.02;100.00;38881.66;5136431;27;20729;-58
2023/09/25 02:02:36;;;;;;;12.75;12.35;;;;;;;-141.02;100.00;38847.16;5136721;27;20238;-58
2023/09/25 02:05:04;;;;;;;12.63;12.23;;;;;;;-141.02;100.00;38868.25;5136661;27;20640;-59
2023/09/25 02:07:31;;;;;;;12.15;11.75;;;;;;;-141.02;100.00;38860.56;5136280;27;20666;-59
2023/09/25 02:09:58;;;;;;;11.55;11.25;;;;;;;-141.02;100.00;38868.25;5133061;27;20204;-59
2023/09/25 02:12:24;;;;;;;11.35;11.05;;;;;;;-141.02;100.00;38866.31;5115423;28;20239;-58
2023/09/25 02:14:54;;;;;;;11.25;10.95;;;;;;;-141.02;100.00;38864.41;5115435;28;20229;-58
2023/09/25 02:17:22;;;;;;;11.20;10.90;;;;;;;-141.02;100.00;38864.41;5115847;28;20243;-58
2023/09/25 02:19:50;;;;;;;11.20;10.90;;;;;;;-141.02;100.00;38872.06;5115506;28;20201;-58
2023/09/25 02:22:17;;;;;;;11.60;11.30;;;;;;;-141.02;100.00;38845.22;5115476;28;20735;-58
2023/09/25 02:24:44;;;;;;;11.70;11.40;;;;;;;-141.02;100.00;38862.50;5115335;28;20629;-58
2023/09/25 02:27:11;;;;;;;11.48;11.18;;;;;;;-141.02;100.00;38850.97;5115364;28;20193;-58
2023/09/25 02:29:38;;;;;;;11.55;11.25;;;;;;;-141.02;100.00;38887.41;5115294;28;20193;-58
2023/09/25 02:32:07;;;;;;;11.48;11.18;;;;;;;-141.02;100.00;38879.75;5115190;28;20207;-58
2023/09/25 02:34:34;;;;;;;11.02;10.73;;;;;;;-141.02;100.00;38898.91;5115135;28;20225;-58
2023/09/25 02:37:01;;;;;;;11.20;10.90;;;;;;;-141.02;100.00;38887.41;5115344;28;20189;-58
2023/09/25 02:39:28;;;;;;;11.05;10.75;;;;;;;-141.02;100.00;38875.91;5115104;28;20203;-58
2023/09/25 02:41:55;;;;;;;11.07;10.77;;;;;;;-141.02;100.00;38872.06;5115087;28;20253;-59
2023/09/25 02:44:22;;;;;;;11.10;10.80;;;;;;;-141.02;100.00;38879.75;5115247;28;20193;-59
2023/09/25 02:46:49;;;;;;;11.23;10.93;;;;;;;-141.02;100.00;38856.72;5114936;28;20232;-58
2023/09/25 02:49:17;;;;;;;11.40;11.10;;;;;;;-141.02;100.00;38854.81;5114918;28;20239;-58
2023/09/25 02:51:44;;;;;;;11.27;10.98;;;;;;;-141.02;100.00;38860.56;5114902;28;20284;-58
2023/09/25 02:54:11;;;;;;;11.15;10.85;;;;;;;-141.02;100.00;38856.72;5113867;28;20225;-58
2023/09/25 02:56:38;;;;;;;11.15;10.85;;;;;;;-141.02;100.00;38902.75;5114725;28;20284;-58
2023/09/25 02:59:05;;;;;;;11.32;11.02;;;;;;;-141.02;100.00;38854.81;5115073;28;20197;-58
2023/09/25 03:01:34;;;;;;;11.40;11.10;;;;;;;-141.02;100.00;38887.41;5115011;28;20582;-60
2023/09/25 03:04:00;;;;;;;11.65;11.35;;;;;;;-141.02;100.00;38918.09;5114972;28;20208;-58
2023/09/25 03:06:29;;;;;;;11.57;11.27;;;;;;;-141.02;100.00;38904.66;5114863;28;20196;-58
2023/09/25 03:08:55;;;;;;;11.50;11.20;;;;;;;-141.02;100.00;38902.75;5114554;28;20197;-58
2023/09/25 03:11:22;;;;;;;11.23;10.93;;;;;;;-141.02;100.00;38914.25;5114468;28;20241;-58
2023/09/25 03:13:50;;;;;;;10.60;10.30;;;;;;;-141.02;100.00;38868.25;5114654;28;20201;-65
2023/09/25 03:16:17;;;;;;;10.52;10.23;;;;;;;-141.02;100.00;38898.91;5114436;28;20197;-59
2023/09/25 03:18:44;;;;;;;10.98;10.68;;;;;;;-141.02;100.00;38879.75;5114611;28;20204;-58
2023/09/25 03:21:13;;;;;;;10.23;9.93;;;;;;;-141.02;100.00;38860.56;5114332;28;20193;-58
2023/09/25 03:23:42;;;;;;;10.88;10.57;;;;;;;-141.02;100.00;38852.91;5114526;28;20285;-58
2023/09/25 03:26:15;;;;;;;10.57;10.27;;;;;;;-141.02;100.00;38877.81;5114567;28;20204;-58
2023/09/25 03:28:43;;;;;;;10.80;10.50;;;;;;;-141.02;100.00;38850.97;5114522;28;20189;-70
2023/09/25 03:31:10;;;;;;;11.07;10.77;;;;;;;-141.02;100.00;38877.81;5114130;28;20196;-68
2023/09/25 03:33:37;;;;;;;10.90;10.60;;;;;;;-141.02;100.00;38883.56;5114402;27;20193;-58
2023/09/25 03:36:06;;;;;;;11.10;10.80;;;;;;;-141.02;100.00;38895.09;5114696;28;20672;-59
2023/09/25 03:38:33;;;;;;;10.75;10.45;;;;;;;-141.02;100.00;38908.50;5113948;28;20189;-58
2023/09/25 03:41:01;;;;;;;10.85;10.55;;;;;;;-141.02;100.00;38893.16;5113961;28;20232;-58
2023/09/25 03:43:28;;;;;;;11.30;11.00;;;;;;;-141.02;100.00;38937.28;5114179;28;20201;-58
2023/09/25 03:45:55;;;;;;;11.40;11.10;;;;;;;-141.02;100.00;38900.84;5114194;28;20236;-67
2023/09/25 03:48:22;;;;;;;11.30;11.00;;;;;;;-141.02;100.00;38902.75;5122225;27;20238;-58
2023/09/25 03:50:49;;;;;;;11.00;10.70;;;;;;;-141.02;100.00;38925.75;5134300;27;20745;-58
2023/09/25 03:53:16;;;;;;;10.52;10.23;;;;;;;-141.02;100.00;38923.84;5134555;27;20224;-58
2023/09/25 03:55:44;;;;;;;10.98;10.68;;;;;;;-141.02;100.00;38918.09;5134452;27;20232;-58
2023/09/25 03:58:12;;;;;;;10.40;10.10;;;;;;;-141.02;100.00;38688.00;5134116;27;20232;-58
2023/09/25 04:00:39;;;;;;;10.55;10.25;;;;;;;-141.02;100.00;38931.50;5134087;27;20663;-58
2023/09/25 04:03:06;;;;;;;10.50;10.20;;;;;;;-141.02;100.00;38941.09;5134333;27;20230;-58
2023/09/25 04:05:34;;;;;;;10.65;10.35;;;;;;;-141.02;100.00;38967.94;5134210;27;20199;-59
2023/09/25 04:08:01;;;;;;;10.23;9.93;;;;;;;-141.02;100.00;39107.94;5134264;27;20611;-63
2023/09/25 04:10:28;;;;;;;9.85;9.55;;;;;;;-141.02;100.00;39228.75;5133654;27;20597;-58
2023/09/25 04:12:56;;;;;;;10.15;9.85;;;;;;;-141.02;100.00;39671.75;5134193;27;20240;-58
2023/09/25 04:15:25;;;;;;;10.48;10.18;;;;;;;-141.02;100.00;39662.16;5133760;27;20713;-58
2023/09/25 04:17:52;;;;;;;10.38;10.07;;;;;;;-141.02;100.00;39589.28;5133670;27;20745;-57
2023/09/25 04:20:24;;;;;;;10.70;10.40;;;;;;;-141.02;100.00;39527.91;5133778;27;20666;-58
2023/09/25 04:22:52;;;;;;;10.38;10.07;;;;;;;-141.02;100.00;39455.03;5133670;27;20242;-57
2023/09/25 04:25:20;;;;;;;10.80;10.50;;;;;;;-141.02;100.00;39432.03;5133969;27;20645;-58
2023/09/25 04:27:48;;;;;;;11.00;10.70;;;;;;;-141.02;100.00;39526.00;5133838;27;20574;-58
2023/09/25 04:30:17;;;;;;;10.68;10.38;;;;;;;-141.02;100.00;39581.63;5134039;27;20223;-58
2023/09/25 04:32:47;;;;;;;10.60;10.30;;;;;;;-141.02;100.00;39631.47;5133468;27;20642;-58
2023/09/25 04:35:15;;;;;;;10.90;10.60;;;;;;;-141.02;100.00;39719.72;5133365;27;20230;-58
2023/09/25 04:37:42;;;;;;;11.07;10.77;;;;;;;-141.02;100.00;39859.72;5133365;27;20677;-58
2023/09/25 04:40:15;;;;;;;10.70;10.40;;;;;;;-141.02;100.00;39842.47;5133587;27;20275;-58
2023/09/25 04:42:42;;;;;;;10.60;10.30;;;;;;;-141.02;100.00;39911.50;5133386;27;20229;-59
2023/09/25 04:45:13;;;;;;;10.77;10.48;;;;;;;-141.02;100.00;39969.06;5124176;27;20197;-59
2023/09/25 04:47:41;;;;;;;10.82;10.52;;;;;;;-141.02;100.00;40057.28;5112690;28;20197;-58
2023/09/25 04:50:11;;;;;;;11.50;11.20;;;;;;;-141.02;100.00;40114.84;5112980;28;20193;-58
2023/09/25 04:52:40;;;;;;;11.10;10.80;;;;;;;-141.02;100.00;40185.81;5112911;28;20278;-59
2023/09/25 04:55:08;;;;;;;11.35;11.05;;;;;;;-141.02;100.00;40277.88;5112828;28;20221;-58
2023/09/25 04:57:35;;;;;;;11.50;11.20;;;;;;;-141.02;100.00;40243.34;5112809;28;20197;-58
2023/09/25 05:00:14;;;;;;;11.27;10.98;;;;;;;-141.02;100.00;40316.25;5112816;28;20288;-58
2023/09/25 05:02:43;;;;;;;10.88;10.57;;;;;;;-141.02;100.00;40337.34;5112524;28;20291;-58
2023/09/25 05:05:11;;;;;;;11.30;11.00;;;;;;;-141.02;100.00;40379.56;5112521;28;20651;-59
2023/09/25 05:07:38;;;;;;;11.20;10.90;;;;;;;-141.02;100.00;40387.22;5128970;27;20567;-58
2023/09/25 05:10:06;;;;;;;11.15;10.85;;;;;;;-141.02;100.00;40402.56;5132963;27;20228;-58
2023/09/25 05:12:33;;;;;;;11.23;10.93;;;;;;;-141.02;100.00;40375.72;5132737;27;20228;-59
2023/09/25 05:15:00;;;;;;;11.18;10.88;;;;;;;-141.02;100.00;40362.28;5132885;27;20251;-58
2023/09/25 05:17:27;;;;;;;11.48;11.18;;;;;;;-141.02;100.00;40385.31;5136451;27;20196;-58
2023/09/25 05:19:54;;;;;;;12.00;11.60;;;;;;;-141.02;100.00;40329.69;5139718;27;20287;-58
2023/09/25 05:22:22;;;;;;;12.20;11.80;;;;;;;-141.02;100.00;40345.03;5139764;27;20202;-58
2023/09/25 05:24:49;;;;;;;12.02;11.63;;;;;;;-141.02;100.00;40356.53;5139652;27;20641;-58
2023/09/25 05:27:16;;;;;;;12.60;12.20;;;;;;;-141.02;100.00;40387.22;5139988;27;20310;-58
2023/09/25 05:29:45;;;;;;;13.13;12.73;;;;;;;-141.02;100.00;40368.03;5139982;27;20619;-59
2023/09/25 05:32:12;;;;;;;13.60;13.20;;;;;;;-141.02;100.00;40379.56;5139895;27;20235;-58
2023/09/25 05:34:39;;;;;;;13.63;13.23;;;;;;;-141.02;100.00;40394.91;5139595;27;20238;-59
2023/09/25 05:37:06;;;;;;;13.65;13.25;;;;;;;-141.02;100.00;40440.94;5139508;27;20597;-58
2023/09/25 05:39:34;;;;;;;13.88;13.38;;;;;;;-141.02;100.00;40421.75;5139593;27;20239;-58
2023/09/25 05:42:01;;;;;;;14.35;13.85;;;;;;;-141.02;100.00;40475.47;5139775;27;20196;-59
2023/09/25 05:44:28;;;;;;;14.27;13.77;;;;;;;-141.02;100.00;40448.63;5139564;27;20188;-58
2023/09/25 05:46:55;;;;;;;14.30;13.80;;;;;;;-141.02;100.00;40460.13;5139775;27;20203;-58
2023/09/25 05:49:22;;;;;;;14.48;13.98;;;;;;;-141.02;100.00;40473.56;5139385;27;20288;-58
2023/09/25 05:51:53;;;;;;;14.30;13.80;;;;;;;-141.02;100.00;40544.53;5139472;27;20227;-58
2023/09/25 05:54:20;;;;;;;14.02;13.52;;;;;;;-141.02;100.00;40563.72;5139442;27;20188;-58
2023/09/25 05:56:49;;;;;;;13.85;13.35;;;;;;;-141.02;100.00;40496.56;5139681;27;20758;-58
2023/09/25 05:59:16;;;;;;;14.10;13.60;;;;;;;-141.02;100.00;40554.13;5139312;27;20284;-59
2023/09/25 06:01:44;;;;;;;14.13;13.63;;;;;;;-141.02;100.00;40625.13;5139641;27;20203;-59
2023/09/25 06:04:12;;;;;;;14.27;13.77;;;;;;;-141.02;100.00;40657.72;5139367;27;20287;-58
2023/09/25 06:06:39;;;;;;;14.13;13.63;;;;;;;-141.02;100.00;40673.06;5139588;27;20195;-59
2023/09/25 06:09:08;;;;;;;14.80;14.30;;;;;;;-141.02;100.00;40690.34;5139603;27;20199;-59
2023/09/25 06:11:38;;;;;;;14.02;13.52;;;;;;;-141.02;100.00;40724.88;5139049;27;20232;-58
2023/09/25 06:14:06;;;;;;;14.43;13.93;;;;;;;-141.02;100.00;40728.72;5139561;27;20196;-58
2023/09/25 06:16:36;;;;;;;14.15;13.65;;;;;;;-141.02;100.00;40769.00;5139442;27;20255;-58
2023/09/25 06:19:03;;;;;;;14.40;13.90;;;;;;;-141.02;100.00;40805.47;5139170;27;20189;-59
2023/09/25 06:21:30;;;;;;;14.40;13.90;;;;;;;-141.02;100.00;40742.16;5139493;27;20197;-58
2023/09/25 06:23:57;;;;;;;14.30;13.80;;;;;;;-141.02;100.00;40761.31;5139435;27;20208;-59
2023/09/25 06:26:27;;;;;;;14.30;13.80;;;;;;;-141.02;100.00;40782.44;5139183;27;20188;-58
2023/09/25 06:28:54;;;;;;;13.60;13.10;;;;;;;-141.02;100.00;40840.00;5136512;27;20644;-59
2023/09/25 06:31:23;;;;;;;13.73;13.23;;;;;;;-141.02;100.00;40807.38;5135842;27;20679;-58
2023/09/25 06:33:50;;;;;;;13.85;13.35;;;;;;;-141.02;100.00;40818.88;5136121;27;20189;-58
2023/09/25 06:36:17;;;;;;;13.85;13.35;;;;;;;-141.02;100.00;40816.97;5135688;27;20254;-66
2023/09/25 06:38:44;;;;;;;14.85;14.35;;;;;;;-141.02;100.00;40882.19;5136047;27;20199;-59
2023/09/25 06:41:12;;;;;;;14.90;14.40;;;;;;;-141.02;100.00;40872.59;5135611;27;20677;-59
2023/09/25 06:43:39;;;;;;;14.63;14.13;;;;;;;-141.02;100.00;40926.31;5135584;27;20677;-59
2023/09/25 06:46:06;;;;;;;14.50;14.00;;;;;;;-141.02;100.00;40947.44;5135866;27;20208;-59
2023/09/25 06:48:35;;;;;;;14.18;13.68;;;;;;;-141.02;100.00;40889.88;5135487;27;20199;-59
2023/09/25 06:51:02;;;;;;;14.38;13.88;;;;;;;-141.02;100.00;40932.09;5135543;27;20196;-59
2023/09/25 06:53:29;;;;;;;14.32;13.82;;;;;;;-141.02;100.00;40997.31;5135374;27;20289;-70
2023/09/25 06:55:56;;;;;;;14.98;14.48;;;;;;;-141.02;100.00;41024.19;5135345;27;20220;-58
2023/09/25 06:58:23;;;;;;;14.30;13.80;;;;;;;-141.02;100.00;40987.72;5135613;27;20193;-58
2023/09/25 07:00:51;;;;;;;14.73;14.23;;;;;;;-141.02;100.00;41051.03;5135301;27;20727;-59
2023/09/25 07:03:18;;;;;;;15.48;14.88;;;;;;;-141.02;100.00;41076.00;5135236;27;20670;-59
2023/09/25 07:05:46;;;;;;;15.75;15.15;;;;;;;-141.02;100.00;41012.66;5135519;27;20197;-69
2023/09/25 07:08:14;;;;;;;15.63;15.02;;;;;;;-141.02;100.00;40991.56;5135487;27;20271;-59
2023/09/25 07:10:45;;;;;;;15.60;15.00;;;;;;;-141.02;100.00;41031.84;5135147;27;20277;-59
2023/09/25 07:13:12;;;;;;;15.38;14.77;;;;;;;-141.02;100.00;41024.19;5135098;27;20195;-59
2023/09/25 07:15:40;;;;;;;15.63;15.02;;;;;;;-141.02;100.00;41077.91;5135233;27;20273;-59
2023/09/25 07:18:07;;;;;;;15.70;15.10;;;;;;;-141.02;100.00;41150.81;5135330;27;20197;-59
2023/09/25 07:20:34;;;;;;;16.17;15.57;;;;;;;-141.02;100.00;41146.97;5134934;27;20235;-58
2023/09/25 07:23:02;;;;;;;15.90;15.30;;;;;;;-141.02;100.00;41239.09;5135145;27;20227;-59
2023/09/25 07:25:29;;;;;;;16.52;15.82;;;;;;;-141.02;100.00;41281.31;5134837;27;20203;-59
2023/09/25 07:27:57;;;;;;;17.15;16.45;;;;;;;-141.02;100.00;41325.44;5135032;27;20272;-58
2023/09/25 07:30:24;;;;;;;17.23;16.52;;;;;;;-141.02;100.00;41327.34;5134724;27;20239;-58
2023/09/25 07:32:51;;;;;;;18.17;17.38;;;;;;;-141.02;99.58;41430.97;5134957;27;20188;-59
2023/09/25 07:35:19;;;;;;;18.30;17.50;;;;;;;-141.02;97.36;41396.44;5134851;27;20196;-69
2023/09/25 07:37:47;;;;;;;18.67;17.88;;;;;;;-141.02;97.19;41404.09;5134567;27;20283;-58
2023/09/25 07:40:18;;;;;;;18.20;17.40;;;;;;;-141.02;99.47;41365.72;5134138;27;20260;-58
2023/09/25 07:42:45;;;;;;;16.63;15.93;;;;;;;-141.02;100.00;41457.84;5134481;27;20184;-59
2023/09/25 07:45:22;;;;;;;16.45;15.75;;;;;;;-141.02;98.52;41534.59;5134338;27;20696;-58
2023/09/25 07:47:52;;;;;;;18.17;17.38;;;;;;;-141.02;97.13;41548.03;5134425;27;20184;-58
2023/09/25 07:50:19;;;;;;;17.75;16.95;;;;;;;-141.02;97.74;41484.72;5134262;27;20192;-59
2023/09/25 07:52:46;;;;;;;17.00;16.30;;;;;;;-141.02;98.06;41538.44;5134633;27;20227;-60
2023/09/25 07:55:15;;;;;;;15.90;15.20;;;;;;;-141.02;96.90;41567.22;5134352;27;20309;-59
2023/09/25 07:57:43;;;;;;;16.17;15.48;;;;;;;-141.02;95.77;41596.00;5134096;27;20283;-67
2023/09/25 08:00:25;;;;;;;16.80;16.10;;;;;;;-141.02;95.07;41538.44;5134041;27;20580;-58
2023/09/25 08:02:53;;;;;;;16.73;16.02;;;;;;;-141.02;95.45;41572.97;5134418;27;20195;-65
2023/09/25 08:05:21;;;;;;;16.67;15.98;;;;;;;-141.02;96.03;41688.13;5134330;27;20188;-58
2023/09/25 08:07:50;;;;;;;17.05;16.35;;;;;;;-141.02;94.01;41762.97;5133992;27;20655;-64
2023/09/25 08:10:19;;;;;;;16.60;15.90;;;;;;;-141.02;94.00;41747.63;5134833;27;20275;-58
2023/09/25 08:12:47;;;;;;;17.35;16.55;;;;;;;-141.02;94.36;41674.69;5133807;27;20292;-62
2023/09/25 08:15:14;;;;;;;17.13;16.35;;;;;;;-141.02;95.59;41622.88;5133743;27;20230;-59
2023/09/25 08:17:44;;;;;;;16.90;16.20;;;;;;;-141.02;96.40;41734.19;5133748;27;20662;-59
2023/09/25 08:20:18;;;;;;;16.70;16.00;;;;;;;-141.02;95.31;41822.47;5133752;27;20689;-60
2023/09/25 08:22:45;;;;;;;17.77;16.98;;;;;;;-141.02;93.59;41864.69;5134003;27;20261;-59
2023/09/25 08:25:12;;;;;;;17.92;17.13;;;;;;;-141.02;91.39;41822.47;5133962;27;20203;-68
2023/09/25 08:27:41;;;;;;;18.23;17.33;;;;;;;-141.02;91.18;41826.31;5133575;27;20200;-59
2023/09/25 08:30:09;;;;;;;18.75;17.95;;;;;;;-141.02;90.52;41780.25;5133909;27;20197;-58
2023/09/25 08:32:36;;;;;;;16.88;16.17;;;;;;;-141.02;88.86;41893.47;5133853;27;20193;-59
2023/09/25 08:35:04;;;;;;;17.05;16.25;;;;;;;-141.02;89.58;41691.97;5133705;27;20287;-59
2023/09/25 08:37:31;;;;;;;17.90;17.10;;;;;;;-141.02;88.00;41684.28;5133704;27;20268;-69
2023/09/25 08:39:58;;;;;;;17.55;16.75;;;;;;;-141.02;89.14;41619.03;5133669;27;20283;-59
2023/09/25 08:42:26;;;;;;;16.70;16.00;;;;;;;-141.02;89.82;41649.75;5133373;27;20650;-59
2023/09/25 08:45:00;;;;;;;17.90;17.10;;;;;;;-141.02;89.58;41540.34;5133571;27;20279;-62
2023/09/25 08:47:28;;;;;;;17.60;16.80;;;;;;;-141.02;92.33;41477.03;5133303;27;20185;-64
2023/09/25 08:49:56;;;;;;;17.52;16.73;;;;;;;-141.02;91.97;41711.16;5133215;27;20697;-68
2023/09/25 08:52:24;;;;;;;18.50;17.60;;;;;;;-141.02;90.29;41611.34;5132774;27;20273;-59
2023/09/25 08:54:52;;;;;;;18.67;17.67;;;;;;;-141.02;90.58;41488.53;5133496;27;20196;-58
2023/09/25 08:57:20;;;;;;;18.67;17.67;;;;;;;-141.02;93.30;41442.50;5133009;27;20319;-59
2023/09/25 08:59:48;;;;;;;18.58;17.58;;;;;;;-141.02;93.22;41548.03;5133432;27;20250;-61
2023/09/25 09:02:17;;;;;;;18.50;17.60;;;;;;;-141.02;91.13;41651.66;5133386;27;20200;-59
2023/09/25 09:04:44;;;;;;;17.52;16.73;;;;;;;-141.02;90.17;41691.97;5133540;27;20192;-59
2023/09/25 09:07:12;;;;;;;18.88;17.98;;;;;;;-141.02;89.04;41820.53;5133360;27;20631;-59
2023/09/25 09:09:40;;;;;;;19.88;18.88;;;;;;;-141.02;87.16;41830.13;5132962;27;20193;-67
2023/09/25 09:12:08;;;;;;;20.40;19.30;;;;;;;-141.02;86.53;41738.03;5133574;27;20231;-59
2023/09/25 09:14:38;;;;;;;20.05;19.05;;;;;;;-141.02;87.11;41626.72;5132883;27;20287;-59
2023/09/25 09:17:05;;;;;;;19.88;18.88;;;;;;;-141.02;89.24;41599.84;5132826;27;20228;-58
2023/09/25 09:19:50;;;;;;;18.73;17.80;;;;;;;-141.02;90.26;41559.53;5133202;27;20279;-59
2023/09/25 09:22:18;;;;;;;18.50;17.60;;;;;;;-141.02;90.14;41534.59;5133269;27;20309;-59
2023/09/25 09:24:47;;;;;;;19.23;18.23;;;;;;;-141.02;90.97;41565.31;5132884;27;20196;-59
2023/09/25 09:27:20;;;;;;;19.38;18.48;;;;;;;-141.02;90.33;41645.91;5133151;27;20628;-58
2023/09/25 09:29:52;;;;;;;19.67;18.67;;;;;;;-141.02;90.28;41695.81;5132803;27;20195;-59
2023/09/25 09:32:19;;;;;;;19.80;18.80;;;;;;;-141.02;90.18;41638.22;5133170;27;20275;-58
2023/09/25 09:34:49;;;;;;;19.15;18.25;;;;;;;-141.02;91.18;41596.00;5132738;27;20193;-58
2023/09/25 09:37:18;;;;;;;18.98;18.08;;;;;;;-141.02;90.38;41549.94;5132924;27;20247;-58
2023/09/25 09:39:52;;;;;;;19.20;18.30;;;;;;;-141.02;91.81;41622.88;5133338;27;20203;-59
2023/09/25 09:42:21;;;;;;;18.80;17.90;;;;;;;-141.02;90.79;41638.22;5133013;27;20189;-59
2023/09/25 09:44:49;;;;;;;18.63;17.73;;;;;;;-141.02;91.03;41601.75;5132975;27;20199;-68
2023/09/25 09:58:22;;;;;;;18.70;17.70;;;;;;;-141.02;88.95;41549.94;5151565;27;20542;-58
2023/09/25 10:00:50;;;;;;;18.63;17.63;;;;;;;-141.02;88.88;41703.47;5150936;27;20282;-58
2023/09/25 10:03:18;;;;;;;18.77;17.77;;;;;;;-141.02;88.77;41605.59;5151176;27;20290;-58
2023/09/25 10:05:45;;;;;;;18.98;17.98;;;;;;;-141.02;88.44;41643.97;5151014;27;20278;-58
2023/09/25 10:08:12;;;;;;;18.75;17.85;;;;;;;-141.02;86.31;41684.28;5150679;27;20282;-58
2023/09/25 10:10:43;;;;;;;18.63;17.63;;;;;;;-141.02;86.17;41860.84;5150944;27;20280;-58
2023/09/25 10:13:14;;;;;;;18.83;17.83;;;;;;;-141.02;84.20;41839.72;5150600;27;20559;-58
2023/09/25 10:15:53;;;;;;;19.15;18.15;;;;;;;-141.02;81.21;41872.38;5150352;27;20195;-58
2023/09/25 10:18:21;;;;;;;19.23;18.23;;;;;;;-141.02;81.15;42133.38;5150838;27;20244;-58
2023/09/25 10:20:48;;;;;;;19.98;18.83;;;;;;;-141.02;77.29;42156.41;5150516;27;20241;-58
2023/09/25 10:23:21;;;;;;;19.30;18.20;;;;;;;-141.02;77.08;42041.25;5150394;27;20188;-58
2023/09/25 10:25:52;;;;;;;19.75;18.65;;;;;;;-141.02;76.06;41999.03;5150649;27;20240;-58
2023/09/25 10:28:23;;;;;;;20.15;18.95;;;;;;;-141.02;75.21;41922.25;5150426;27;20195;-58
2023/09/25 10:30:52;;;;;;;19.67;18.58;;;;;;;-141.02;73.44;41926.09;5150645;27;20185;-58
2023/09/25 10:33:21;;;;;;;20.20;19.00;;;;;;;-141.02;74.37;41857.00;5150293;27;20726;-58
2023/09/25 10:35:50;;;;;;;19.88;18.77;;;;;;;-141.02;74.44;41956.81;5150188;27;20227;-59
2023/09/25 10:38:19;;;;;;;19.80;18.65;;;;;;;-141.02;73.21;42025.91;5150094;27;20747;-58
2023/09/25 10:40:49;;;;;;;19.95;18.77;;;;;;;-141.02;70.04;41939.53;5149770;27;20188;-58
2023/09/25 10:43:18;;;;;;;20.25;19.10;;;;;;;-141.02;69.81;41762.97;5150017;27;20191;-66
2023/09/25 10:45:45;;;;;;;19.50;18.40;;;;;;;-141.02;69.17;41937.63;5150201;27;20198;-58
2023/09/25 10:48:14;;;;;;;19.85;18.65;;;;;;;-141.02;70.46;41960.66;5150006;27;20269;-58
2023/09/25 10:50:43;;;;;;;19.70;18.50;;;;;;;-141.02;69.98;41951.06;5150158;27;20192;-58
2023/09/25 10:53:10;;;;;;;19.60;18.50;;;;;;;-141.02;69.60;41768.72;5149930;27;20260;-58
2023/09/25 10:55:38;;;;;;;19.52;18.42;;;;;;;-141.02;69.81;41713.06;5150101;27;20226;-58
2023/09/25 10:58:06;;;;;;;19.17;18.08;;;;;;;-141.02;70.01;41895.38;5142688;27;20315;-58
2023/09/25 11:00:35;;;;;;;19.20;18.20;;;;;;;-141.02;70.07;41880.03;5135945;27;20720;-58
2023/09/25 11:03:03;;;;;;;19.02;17.95;;;;;;;-141.02;71.22;41910.75;5135839;27;20644;-58
2023/09/25 11:05:33;;;;;;;19.25;18.15;;;;;;;-141.02;71.40;41903.06;5135846;27;20235;-58
2023/09/25 11:08:00;;;;;;;19.55;18.35;;;;;;;-141.02;69.42;41952.97;5135654;27;20255;-58
2023/09/25 11:10:29;;;;;;;19.38;18.27;;;;;;;-141.02;71.32;41926.09;5135779;27;20257;-58
2023/09/25 11:12:57;;;;;;;19.25;18.15;;;;;;;-141.02;72.89;41845.50;5135755;27;20196;-58